sensor_id;sensor_type;location;lat;lon;timestamp;P1;durP1;ratioP1;P2;durP2;ratioP2
26906;SDS011;14472;56.880;16.658;2024-02-23T00:00:34;15.97;;;7.50;;
26906;SDS011;14472;56.880;16.658;2024-02-23T00:03:00;12.80;;;6.73;;
26906;SDS011;14472;56.880;16.658;2024-02-23T00:05:25;14.53;;;7.87;;
26906;SDS011;14472;56.880;16.658;2024-02-23T00:07:51;13.67;;;7.83;;
26906;SDS011;14472;56.880;16.658;2024-02-23T00:10:17;12.57;;;7.27;;
26906;SDS011;14472;56.880;16.658;2024-02-23T00:12:42;14.97;;;7.80;;
26906;SDS011;14472;56.880;16.658;2024-02-23T00:15:09;13.43;;;6.73;;
26906;SDS011;14472;56.880;16.658;2024-02-23T00:17:35;13.80;;;7.83;;
26906;SDS011;14472;56.880;16.658;2024-02-23T00:20:00;16.47;;;8.10;;
26906;SDS011;14472;56.880;16.658;2024-02-23T00:22:26;15.90;;;8.20;;
26906;SDS011;14472;56.880;16.658;2024-02-23T00:24:52;14.43;;;7.60;;
26906;SDS011;14472;56.880;16.658;2024-02-23T00:27:18;15.27;;;7.80;;
26906;SDS011;14472;56.880;16.658;2024-02-23T00:29:43;17.33;;;8.13;;
26906;SDS011;14472;56.880;16.658;2024-02-23T00:32:09;15.17;;;7.87;;
26906;SDS011;14472;56.880;16.658;2024-02-23T00:34:35;12.80;;;6.60;;
26906;SDS011;14472;56.880;16.658;2024-02-23T00:37:02;10.13;;;6.23;;
26906;SDS011;14472;56.880;16.658;2024-02-23T00:39:28;13.63;;;7.23;;
26906;SDS011;14472;56.880;16.658;2024-02-23T00:41:56;12.60;;;6.60;;
26906;SDS011;14472;56.880;16.658;2024-02-23T00:44:22;10.70;;;6.13;;
26906;SDS011;14472;56.880;16.658;2024-02-23T00:46:47;13.00;;;5.90;;
26906;SDS011;14472;56.880;16.658;2024-02-23T00:49:13;11.43;;;6.20;;
26906;SDS011;14472;56.880;16.658;2024-02-23T00:51:39;12.53;;;6.87;;
26906;SDS011;14472;56.880;16.658;2024-02-23T00:54:04;13.17;;;6.17;;
26906;SDS011;14472;56.880;16.658;2024-02-23T00:56:32;13.47;;;7.10;;
26906;SDS011;14472;56.880;16.658;2024-02-23T00:58:58;13.33;;;6.97;;
26906;SDS011;14472;56.880;16.658;2024-02-23T01:01:24;11.90;;;6.50;;
26906;SDS011;14472;56.880;16.658;2024-02-23T01:03:51;14.63;;;7.80;;
26906;SDS011;14472;56.880;16.658;2024-02-23T01:06:17;12.03;;;6.20;;
26906;SDS011;14472;56.880;16.658;2024-02-23T01:08:43;14.47;;;7.37;;
26906;SDS011;14472;56.880;16.658;2024-02-23T01:11:08;10.93;;;6.00;;
26906;SDS011;14472;56.880;16.658;2024-02-23T01:13:34;14.37;;;7.10;;
26906;SDS011;14472;56.880;16.658;2024-02-23T01:16:00;14.23;;;6.03;;
26906;SDS011;14472;56.880;16.658;2024-02-23T01:18:26;11.10;;;6.10;;
26906;SDS011;14472;56.880;16.658;2024-02-23T01:20:51;13.07;;;6.10;;
26906;SDS011;14472;56.880;16.658;2024-02-23T01:23:17;12.10;;;6.17;;
26906;SDS011;14472;56.880;16.658;2024-02-23T01:25:43;14.70;;;7.10;;
26906;SDS011;14472;56.880;16.658;2024-02-23T01:28:09;12.20;;;6.77;;
26906;SDS011;14472;56.880;16.658;2024-02-23T01:30:34;12.17;;;5.80;;
26906;SDS011;14472;56.880;16.658;2024-02-23T01:33:00;12.27;;;7.07;;
26906;SDS011;14472;56.880;16.658;2024-02-23T01:35:26;16.07;;;7.10;;
26906;SDS011;14472;56.880;16.658;2024-02-23T01:37:52;16.23;;;7.37;;
26906;SDS011;14472;56.880;16.658;2024-02-23T01:40:18;12.13;;;6.27;;
26906;SDS011;14472;56.880;16.658;2024-02-23T01:42:44;14.77;;;6.67;;
26906;SDS011;14472;56.880;16.658;2024-02-23T01:45:10;16.80;;;6.27;;
26906;SDS011;14472;56.880;16.658;2024-02-23T01:47:36;14.67;;;7.50;;
26906;SDS011;14472;56.880;16.658;2024-02-23T01:50:01;20.10;;;8.30;;
26906;SDS011;14472;56.880;16.658;2024-02-23T01:52:28;18.60;;;7.27;;
26906;SDS011;14472;56.880;16.658;2024-02-23T01:54:54;19.63;;;7.60;;
26906;SDS011;14472;56.880;16.658;2024-02-23T01:57:20;20.10;;;7.97;;
26906;SDS011;14472;56.880;16.658;2024-02-23T01:59:46;22.13;;;8.70;;
26906;SDS011;14472;56.880;16.658;2024-02-23T02:02:13;17.17;;;7.67;;
26906;SDS011;14472;56.880;16.658;2024-02-23T02:04:39;17.00;;;8.03;;
26906;SDS011;14472;56.880;16.658;2024-02-23T02:07:05;17.17;;;8.10;;
26906;SDS011;14472;56.880;16.658;2024-02-23T02:09:30;19.67;;;7.97;;
26906;SDS011;14472;56.880;16.658;2024-02-23T02:11:57;19.93;;;9.47;;
26906;SDS011;14472;56.880;16.658;2024-02-23T02:14:22;19.23;;;8.07;;
26906;SDS011;14472;56.880;16.658;2024-02-23T02:16:48;16.93;;;8.00;;
26906;SDS011;14472;56.880;16.658;2024-02-23T02:19:14;17.77;;;7.93;;
26906;SDS011;14472;56.880;16.658;2024-02-23T02:21:39;17.37;;;9.07;;
26906;SDS011;14472;56.880;16.658;2024-02-23T02:24:06;20.30;;;9.43;;
26906;SDS011;14472;56.880;16.658;2024-02-23T02:26:32;16.73;;;8.70;;
26906;SDS011;14472;56.880;16.658;2024-02-23T02:28:59;17.67;;;8.57;;
26906;SDS011;14472;56.880;16.658;2024-02-23T02:31:25;16.70;;;9.20;;
26906;SDS011;14472;56.880;16.658;2024-02-23T02:33:50;19.77;;;9.80;;
26906;SDS011;14472;56.880;16.658;2024-02-23T02:36:16;19.57;;;10.30;;
26906;SDS011;14472;56.880;16.658;2024-02-23T02:38:42;16.80;;;9.80;;
26906;SDS011;14472;56.880;16.658;2024-02-23T02:41:08;19.07;;;9.70;;
26906;SDS011;14472;56.880;16.658;2024-02-23T02:43:34;19.83;;;11.13;;
26906;SDS011;14472;56.880;16.658;2024-02-23T02:45:59;21.77;;;12.43;;
26906;SDS011;14472;56.880;16.658;2024-02-23T02:48:25;18.53;;;10.30;;
26906;SDS011;14472;56.880;16.658;2024-02-23T02:50:51;18.50;;;10.70;;
26906;SDS011;14472;56.880;16.658;2024-02-23T02:53:17;20.40;;;11.27;;
26906;SDS011;14472;56.880;16.658;2024-02-23T02:55:43;23.93;;;12.83;;
26906;SDS011;14472;56.880;16.658;2024-02-23T02:58:10;22.93;;;11.93;;
26906;SDS011;14472;56.880;16.658;2024-02-23T03:00:37;20.67;;;10.97;;
26906;SDS011;14472;56.880;16.658;2024-02-23T03:03:03;20.07;;;11.17;;
26906;SDS011;14472;56.880;16.658;2024-02-23T03:05:29;24.40;;;12.70;;
26906;SDS011;14472;56.880;16.658;2024-02-23T03:07:55;22.47;;;13.23;;
26906;SDS011;14472;56.880;16.658;2024-02-23T03:10:20;20.70;;;12.07;;
26906;SDS011;14472;56.880;16.658;2024-02-23T03:12:46;20.20;;;10.90;;
26906;SDS011;14472;56.880;16.658;2024-02-23T03:15:12;16.67;;;9.87;;
26906;SDS011;14472;56.880;16.658;2024-02-23T03:17:37;20.03;;;10.67;;
26906;SDS011;14472;56.880;16.658;2024-02-23T03:20:04;13.93;;;8.37;;
26906;SDS011;14472;56.880;16.658;2024-02-23T03:22:36;12.43;;;7.57;;
26906;SDS011;14472;56.880;16.658;2024-02-23T03:25:03;11.77;;;6.63;;
26906;SDS011;14472;56.880;16.658;2024-02-23T03:27:33;10.37;;;6.77;;
26906;SDS011;14472;56.880;16.658;2024-02-23T03:30:01;10.73;;;6.73;;
26906;SDS011;14472;56.880;16.658;2024-02-23T03:32:28;9.20;;;6.40;;
26906;SDS011;14472;56.880;16.658;2024-02-23T03:34:53;8.73;;;5.60;;
26906;SDS011;14472;56.880;16.658;2024-02-23T03:37:19;9.07;;;6.27;;
26906;SDS011;14472;56.880;16.658;2024-02-23T03:39:44;9.50;;;6.23;;
26906;SDS011;14472;56.880;16.658;2024-02-23T03:42:10;10.67;;;6.40;;
26906;SDS011;14472;56.880;16.658;2024-02-23T03:44:36;10.53;;;5.60;;
26906;SDS011;14472;56.880;16.658;2024-02-23T03:47:02;8.20;;;5.97;;
26906;SDS011;14472;56.880;16.658;2024-02-23T03:49:27;11.03;;;6.93;;
26906;SDS011;14472;56.880;16.658;2024-02-23T03:51:53;9.07;;;6.13;;
26906;SDS011;14472;56.880;16.658;2024-02-23T03:54:19;11.30;;;6.60;;
26906;SDS011;14472;56.880;16.658;2024-02-23T03:56:44;12.80;;;7.63;;
26906;SDS011;14472;56.880;16.658;2024-02-23T03:59:10;11.17;;;7.90;;
26906;SDS011;14472;56.880;16.658;2024-02-23T04:01:36;15.07;;;8.07;;
26906;SDS011;14472;56.880;16.658;2024-02-23T04:04:03;11.23;;;7.43;;
26906;SDS011;14472;56.880;16.658;2024-02-23T04:06:29;12.33;;;8.07;;
26906;SDS011;14472;56.880;16.658;2024-02-23T04:08:55;13.00;;;8.17;;
26906;SDS011;14472;56.880;16.658;2024-02-23T04:11:20;14.40;;;9.53;;
26906;SDS011;14472;56.880;16.658;2024-02-23T04:13:46;12.67;;;7.93;;
26906;SDS011;14472;56.880;16.658;2024-02-23T04:16:11;16.97;;;9.73;;
26906;SDS011;14472;56.880;16.658;2024-02-23T04:18:37;18.77;;;10.07;;
26906;SDS011;14472;56.880;16.658;2024-02-23T04:21:03;17.60;;;10.30;;
26906;SDS011;14472;56.880;16.658;2024-02-23T04:23:29;14.33;;;8.57;;
26906;SDS011;14472;56.880;16.658;2024-02-23T04:25:55;14.97;;;9.17;;
26906;SDS011;14472;56.880;16.658;2024-02-23T04:28:21;14.53;;;8.53;;
26906;SDS011;14472;56.880;16.658;2024-02-23T04:30:46;14.13;;;9.20;;
26906;SDS011;14472;56.880;16.658;2024-02-23T04:33:12;13.23;;;8.47;;
26906;SDS011;14472;56.880;16.658;2024-02-23T04:35:38;11.30;;;7.43;;
26906;SDS011;14472;56.880;16.658;2024-02-23T04:38:04;13.33;;;6.80;;
26906;SDS011;14472;56.880;16.658;2024-02-23T04:40:29;13.10;;;7.83;;
26906;SDS011;14472;56.880;16.658;2024-02-23T04:42:55;9.13;;;6.37;;
26906;SDS011;14472;56.880;16.658;2024-02-23T04:45:21;11.13;;;6.67;;
26906;SDS011;14472;56.880;16.658;2024-02-23T04:47:46;8.73;;;6.03;;
26906;SDS011;14472;56.880;16.658;2024-02-23T04:50:13;10.07;;;6.50;;
26906;SDS011;14472;56.880;16.658;2024-02-23T04:52:39;8.20;;;5.53;;
26906;SDS011;14472;56.880;16.658;2024-02-23T04:55:05;7.27;;;5.37;;
26906;SDS011;14472;56.880;16.658;2024-02-23T04:57:31;9.50;;;5.87;;
26906;SDS011;14472;56.880;16.658;2024-02-23T04:59:57;8.90;;;5.80;;
26906;SDS011;14472;56.880;16.658;2024-02-23T05:02:22;9.83;;;5.60;;
26906;SDS011;14472;56.880;16.658;2024-02-23T05:04:48;7.63;;;5.33;;
26906;SDS011;14472;56.880;16.658;2024-02-23T05:07:14;9.07;;;5.87;;
26906;SDS011;14472;56.880;16.658;2024-02-23T05:09:40;7.57;;;5.27;;
26906;SDS011;14472;56.880;16.658;2024-02-23T05:12:06;8.93;;;6.67;;
26906;SDS011;14472;56.880;16.658;2024-02-23T05:14:33;9.50;;;7.07;;
26906;SDS011;14472;56.880;16.658;2024-02-23T05:16:59;9.33;;;6.30;;
26906;SDS011;14472;56.880;16.658;2024-02-23T05:19:24;8.07;;;5.73;;
26906;SDS011;14472;56.880;16.658;2024-02-23T05:21:50;8.73;;;5.77;;
26906;SDS011;14472;56.880;16.658;2024-02-23T05:24:16;7.30;;;4.53;;
26906;SDS011;14472;56.880;16.658;2024-02-23T05:26:42;7.17;;;4.27;;
26906;SDS011;14472;56.880;16.658;2024-02-23T05:29:09;5.37;;;4.70;;
26906;SDS011;14472;56.880;16.658;2024-02-23T05:31:45;5.87;;;4.87;;
26906;SDS011;14472;56.880;16.658;2024-02-23T05:34:12;7.13;;;5.00;;
26906;SDS011;14472;56.880;16.658;2024-02-23T05:36:38;10.53;;;4.33;;
26906;SDS011;14472;56.880;16.658;2024-02-23T05:39:04;8.43;;;4.70;;
26906;SDS011;14472;56.880;16.658;2024-02-23T05:41:30;6.87;;;4.30;;
26906;SDS011;14472;56.880;16.658;2024-02-23T05:43:56;7.03;;;4.47;;
26906;SDS011;14472;56.880;16.658;2024-02-23T05:46:21;6.00;;;4.13;;
26906;SDS011;14472;56.880;16.658;2024-02-23T05:48:47;7.70;;;4.93;;
26906;SDS011;14472;56.880;16.658;2024-02-23T05:51:13;8.33;;;5.03;;
26906;SDS011;14472;56.880;16.658;2024-02-23T05:53:39;7.33;;;5.00;;
26906;SDS011;14472;56.880;16.658;2024-02-23T05:56:05;5.30;;;4.00;;
26906;SDS011;14472;56.880;16.658;2024-02-23T05:58:31;8.63;;;5.00;;
26906;SDS011;14472;56.880;16.658;2024-02-23T06:00:57;8.30;;;5.53;;
26906;SDS011;14472;56.880;16.658;2024-02-23T06:03:23;8.60;;;4.97;;
26906;SDS011;14472;56.880;16.658;2024-02-23T06:05:48;9.23;;;4.70;;
26906;SDS011;14472;56.880;16.658;2024-02-23T06:08:14;7.63;;;4.67;;
26906;SDS011;14472;56.880;16.658;2024-02-23T06:10:39;8.53;;;5.23;;
26906;SDS011;14472;56.880;16.658;2024-02-23T06:13:07;7.17;;;4.17;;
26906;SDS011;14472;56.880;16.658;2024-02-23T06:15:33;8.17;;;4.80;;
26906;SDS011;14472;56.880;16.658;2024-02-23T06:17:59;7.00;;;4.60;;
26906;SDS011;14472;56.880;16.658;2024-02-23T06:20:24;4.50;;;3.60;;
26906;SDS011;14472;56.880;16.658;2024-02-23T06:22:50;5.43;;;3.53;;
26906;SDS011;14472;56.880;16.658;2024-02-23T06:25:16;5.97;;;3.40;;
26906;SDS011;14472;56.880;16.658;2024-02-23T06:27:42;7.20;;;3.67;;
26906;SDS011;14472;56.880;16.658;2024-02-23T06:30:07;4.53;;;2.83;;
26906;SDS011;14472;56.880;16.658;2024-02-23T06:32:33;7.10;;;3.40;;
26906;SDS011;14472;56.880;16.658;2024-02-23T06:34:59;4.57;;;2.50;;
26906;SDS011;14472;56.880;16.658;2024-02-23T06:37:25;3.50;;;2.27;;
26906;SDS011;14472;56.880;16.658;2024-02-23T06:39:50;3.63;;;2.30;;
26906;SDS011;14472;56.880;16.658;2024-02-23T06:42:20;4.87;;;2.60;;
26906;SDS011;14472;56.880;16.658;2024-02-23T06:44:46;4.03;;;2.23;;
26906;SDS011;14472;56.880;16.658;2024-02-23T06:47:12;3.43;;;2.07;;
26906;SDS011;14472;56.880;16.658;2024-02-23T06:49:41;2.20;;;1.47;;
26906;SDS011;14472;56.880;16.658;2024-02-23T06:52:10;3.73;;;1.50;;
26906;SDS011;14472;56.880;16.658;2024-02-23T06:54:36;2.70;;;1.60;;
26906;SDS011;14472;56.880;16.658;2024-02-23T06:57:02;2.53;;;1.50;;
26906;SDS011;14472;56.880;16.658;2024-02-23T06:59:28;1.37;;;1.00;;
26906;SDS011;14472;56.880;16.658;2024-02-23T07:01:54;2.37;;;1.10;;
26906;SDS011;14472;56.880;16.658;2024-02-23T07:04:20;3.70;;;1.33;;
26906;SDS011;14472;56.880;16.658;2024-02-23T07:06:46;2.87;;;1.20;;
26906;SDS011;14472;56.880;16.658;2024-02-23T07:09:11;3.17;;;1.20;;
26906;SDS011;14472;56.880;16.658;2024-02-23T07:11:37;2.37;;;1.03;;
26906;SDS011;14472;56.880;16.658;2024-02-23T07:14:04;1.37;;;0.90;;
26906;SDS011;14472;56.880;16.658;2024-02-23T07:16:30;1.57;;;0.90;;
26906;SDS011;14472;56.880;16.658;2024-02-23T07:18:57;4.37;;;1.20;;
26906;SDS011;14472;56.880;16.658;2024-02-23T07:21:22;1.70;;;0.80;;
26906;SDS011;14472;56.880;16.658;2024-02-23T07:23:48;1.17;;;0.73;;
26906;SDS011;14472;56.880;16.658;2024-02-23T07:26:14;4.13;;;0.90;;
26906;SDS011;14472;56.880;16.658;2024-02-23T07:28:39;2.57;;;1.10;;
26906;SDS011;14472;56.880;16.658;2024-02-23T07:31:05;0.83;;;0.80;;
26906;SDS011;14472;56.880;16.658;2024-02-23T07:33:31;3.70;;;0.80;;
26906;SDS011;14472;56.880;16.658;2024-02-23T07:35:56;2.50;;;0.90;;
26906;SDS011;14472;56.880;16.658;2024-02-23T07:38:22;1.43;;;0.87;;
26906;SDS011;14472;56.880;16.658;2024-02-23T07:40:48;1.47;;;0.60;;
26906;SDS011;14472;56.880;16.658;2024-02-23T07:43:14;1.87;;;0.90;;
26906;SDS011;14472;56.880;16.658;2024-02-23T07:45:39;2.83;;;0.93;;
26906;SDS011;14472;56.880;16.658;2024-02-23T07:48:05;2.80;;;0.80;;
26906;SDS011;14472;56.880;16.658;2024-02-23T07:50:31;1.43;;;0.70;;
26906;SDS011;14472;56.880;16.658;2024-02-23T07:52:57;0.40;;;0.40;;
26906;SDS011;14472;56.880;16.658;2024-02-23T07:55:23;1.20;;;0.67;;
26906;SDS011;14472;56.880;16.658;2024-02-23T07:57:48;0.93;;;0.77;;
26906;SDS011;14472;56.880;16.658;2024-02-23T08:00:14;0.53;;;0.50;;
26906;SDS011;14472;56.880;16.658;2024-02-23T08:02:40;0.67;;;0.63;;
26906;SDS011;14472;56.880;16.658;2024-02-23T08:05:06;0.70;;;0.70;;
26906;SDS011;14472;56.880;16.658;2024-02-23T08:07:32;2.03;;;0.63;;
26906;SDS011;14472;56.880;16.658;2024-02-23T08:09:58;2.83;;;0.60;;
26906;SDS011;14472;56.880;16.658;2024-02-23T08:12:25;1.77;;;0.60;;
26906;SDS011;14472;56.880;16.658;2024-02-23T08:14:54;1.80;;;0.60;;
26906;SDS011;14472;56.880;16.658;2024-02-23T08:17:24;2.83;;;0.73;;
26906;SDS011;14472;56.880;16.658;2024-02-23T08:19:50;3.10;;;0.60;;
26906;SDS011;14472;56.880;16.658;2024-02-23T08:22:16;2.00;;;0.80;;
26906;SDS011;14472;56.880;16.658;2024-02-23T08:24:41;1.37;;;0.80;;
26906;SDS011;14472;56.880;16.658;2024-02-23T08:27:07;1.10;;;0.60;;
26906;SDS011;14472;56.880;16.658;2024-02-23T08:29:33;1.47;;;0.53;;
26906;SDS011;14472;56.880;16.658;2024-02-23T08:31:58;2.97;;;0.70;;
26906;SDS011;14472;56.880;16.658;2024-02-23T08:34:24;0.53;;;0.53;;
26906;SDS011;14472;56.880;16.658;2024-02-23T08:36:50;1.93;;;0.63;;
26906;SDS011;14472;56.880;16.658;2024-02-23T08:39:16;1.90;;;0.77;;
26906;SDS011;14472;56.880;16.658;2024-02-23T08:41:42;1.00;;;0.80;;
26906;SDS011;14472;56.880;16.658;2024-02-23T08:44:07;2.87;;;0.77;;
26906;SDS011;14472;56.880;16.658;2024-02-23T08:46:33;0.63;;;0.50;;
26906;SDS011;14472;56.880;16.658;2024-02-23T08:48:59;0.60;;;0.50;;
26906;SDS011;14472;56.880;16.658;2024-02-23T08:51:25;1.03;;;0.60;;
26906;SDS011;14472;56.880;16.658;2024-02-23T08:53:51;2.27;;;0.50;;
26906;SDS011;14472;56.880;16.658;2024-02-23T08:56:16;2.83;;;0.50;;
26906;SDS011;14472;56.880;16.658;2024-02-23T08:58:42;2.60;;;0.80;;
26906;SDS011;14472;56.880;16.658;2024-02-23T09:01:08;1.63;;;0.93;;
26906;SDS011;14472;56.880;16.658;2024-02-23T09:03:34;3.00;;;0.90;;
26906;SDS011;14472;56.880;16.658;2024-02-23T09:06:00;2.40;;;0.80;;
26906;SDS011;14472;56.880;16.658;2024-02-23T09:08:25;1.63;;;0.90;;
26906;SDS011;14472;56.880;16.658;2024-02-23T09:10:52;1.00;;;0.80;;
26906;SDS011;14472;56.880;16.658;2024-02-23T09:13:17;1.97;;;0.90;;
26906;SDS011;14472;56.880;16.658;2024-02-23T09:15:43;1.90;;;0.57;;
26906;SDS011;14472;56.880;16.658;2024-02-23T09:18:09;2.07;;;0.80;;
26906;SDS011;14472;56.880;16.658;2024-02-23T09:20:34;1.40;;;0.60;;
26906;SDS011;14472;56.880;16.658;2024-02-23T09:23:00;1.53;;;0.60;;
26906;SDS011;14472;56.880;16.658;2024-02-23T09:25:26;1.93;;;0.73;;
26906;SDS011;14472;56.880;16.658;2024-02-23T09:27:51;1.13;;;0.67;;
26906;SDS011;14472;56.880;16.658;2024-02-23T09:30:21;2.63;;;0.87;;
26906;SDS011;14472;56.880;16.658;2024-02-23T09:32:47;4.43;;;0.80;;
26906;SDS011;14472;56.880;16.658;2024-02-23T09:35:12;2.23;;;0.73;;
26906;SDS011;14472;56.880;16.658;2024-02-23T09:37:39;1.30;;;0.60;;
26906;SDS011;14472;56.880;16.658;2024-02-23T09:40:05;5.03;;;0.80;;
26906;SDS011;14472;56.880;16.658;2024-02-23T09:42:31;1.60;;;0.60;;
26906;SDS011;14472;56.880;16.658;2024-02-23T09:44:58;1.27;;;0.63;;
26906;SDS011;14472;56.880;16.658;2024-02-23T09:47:28;2.77;;;0.90;;
26906;SDS011;14472;56.880;16.658;2024-02-23T09:49:54;2.23;;;1.00;;
26906;SDS011;14472;56.880;16.658;2024-02-23T09:52:20;1.13;;;0.70;;
26906;SDS011;14472;56.880;16.658;2024-02-23T09:54:47;2.63;;;0.63;;
26906;SDS011;14472;56.880;16.658;2024-02-23T09:57:13;2.97;;;0.80;;
26906;SDS011;14472;56.880;16.658;2024-02-23T09:59:40;1.70;;;0.80;;
26906;SDS011;14472;56.880;16.658;2024-02-23T10:02:09;2.07;;;0.77;;
26906;SDS011;14472;56.880;16.658;2024-02-23T10:04:39;2.83;;;0.87;;
26906;SDS011;14472;56.880;16.658;2024-02-23T10:07:06;3.37;;;0.90;;
26906;SDS011;14472;56.880;16.658;2024-02-23T10:09:32;2.40;;;0.70;;
26906;SDS011;14472;56.880;16.658;2024-02-23T10:11:58;4.00;;;0.80;;
26906;SDS011;14472;56.880;16.658;2024-02-23T10:14:23;3.80;;;0.70;;
26906;SDS011;14472;56.880;16.658;2024-02-23T10:16:50;3.17;;;1.00;;
26906;SDS011;14472;56.880;16.658;2024-02-23T10:19:19;1.57;;;0.70;;
26906;SDS011;14472;56.880;16.658;2024-02-23T10:21:45;4.87;;;1.00;;
26906;SDS011;14472;56.880;16.658;2024-02-23T10:24:11;2.40;;;0.70;;
26906;SDS011;14472;56.880;16.658;2024-02-23T10:26:37;0.70;;;0.43;;
26906;SDS011;14472;56.880;16.658;2024-02-23T10:29:02;1.67;;;0.90;;
26906;SDS011;14472;56.880;16.658;2024-02-23T10:31:29;2.33;;;0.80;;
26906;SDS011;14472;56.880;16.658;2024-02-23T10:33:59;0.90;;;0.60;;
26906;SDS011;14472;56.880;16.658;2024-02-23T10:36:27;4.17;;;0.70;;
26906;SDS011;14472;56.880;16.658;2024-02-23T10:38:56;1.30;;;0.67;;
26906;SDS011;14472;56.880;16.658;2024-02-23T10:41:25;1.83;;;0.70;;
26906;SDS011;14472;56.880;16.658;2024-02-23T10:43:53;1.63;;;0.73;;
26906;SDS011;14472;56.880;16.658;2024-02-23T10:46:21;1.80;;;0.80;;
26906;SDS011;14472;56.880;16.658;2024-02-23T10:48:47;2.93;;;0.70;;
26906;SDS011;14472;56.880;16.658;2024-02-23T10:51:14;3.53;;;0.90;;
26906;SDS011;14472;56.880;16.658;2024-02-23T10:53:40;3.30;;;0.90;;
26906;SDS011;14472;56.880;16.658;2024-02-23T10:56:07;1.57;;;1.07;;
26906;SDS011;14472;56.880;16.658;2024-02-23T10:58:35;1.33;;;0.80;;
26906;SDS011;14472;56.880;16.658;2024-02-23T11:01:01;2.97;;;0.90;;
26906;SDS011;14472;56.880;16.658;2024-02-23T11:03:29;3.37;;;0.90;;
26906;SDS011;14472;56.880;16.658;2024-02-23T11:05:56;3.80;;;0.70;;
26906;SDS011;14472;56.880;16.658;2024-02-23T11:08:22;2.53;;;0.90;;
26906;SDS011;14472;56.880;16.658;2024-02-23T11:10:51;3.20;;;0.90;;
26906;SDS011;14472;56.880;16.658;2024-02-23T11:13:38;2.23;;;0.77;;
26906;SDS011;14472;56.880;16.658;2024-02-23T11:16:05;1.43;;;0.73;;
26906;SDS011;14472;56.880;16.658;2024-02-23T11:18:32;2.03;;;0.90;;
26906;SDS011;14472;56.880;16.658;2024-02-23T11:21:00;3.73;;;0.90;;
26906;SDS011;14472;56.880;16.658;2024-02-23T11:23:42;2.83;;;0.80;;
26906;SDS011;14472;56.880;16.658;2024-02-23T11:26:10;4.20;;;0.90;;
26906;SDS011;14472;56.880;16.658;2024-02-23T11:31:15;2.43;;;0.70;;
26906;SDS011;14472;56.880;16.658;2024-02-23T11:33:47;2.23;;;1.00;;
26906;SDS011;14472;56.880;16.658;2024-02-23T11:36:30;4.43;;;1.27;;
26906;SDS011;14472;56.880;16.658;2024-02-23T11:39:00;13.17;;;5.10;;
26906;SDS011;14472;56.880;16.658;2024-02-23T11:41:27;8.53;;;3.70;;
26906;SDS011;14472;56.880;16.658;2024-02-23T11:43:54;14.23;;;7.53;;
26906;SDS011;14472;56.880;16.658;2024-02-23T11:46:21;8.43;;;4.23;;
26906;SDS011;14472;56.880;16.658;2024-02-23T11:48:47;27.70;;;11.67;;
26906;SDS011;14472;56.880;16.658;2024-02-23T11:51:19;39.97;;;16.40;;
26906;SDS011;14472;56.880;16.658;2024-02-23T11:53:46;35.43;;;15.53;;
26906;SDS011;14472;56.880;16.658;2024-02-23T11:56:12;12.47;;;5.23;;
26906;SDS011;14472;56.880;16.658;2024-02-23T11:58:39;11.03;;;5.80;;
26906;SDS011;14472;56.880;16.658;2024-02-23T12:01:05;3.73;;;2.00;;
26906;SDS011;14472;56.880;16.658;2024-02-23T12:03:32;3.23;;;1.83;;
26906;SDS011;14472;56.880;16.658;2024-02-23T12:05:58;3.87;;;2.50;;
26906;SDS011;14472;56.880;16.658;2024-02-23T12:08:27;4.27;;;2.53;;
26906;SDS011;14472;56.880;16.658;2024-02-23T12:10:56;10.37;;;6.30;;
26906;SDS011;14472;56.880;16.658;2024-02-23T12:13:25;5.80;;;2.87;;
26906;SDS011;14472;56.880;16.658;2024-02-23T12:15:54;17.60;;;7.40;;
26906;SDS011;14472;56.880;16.658;2024-02-23T12:18:24;6.77;;;3.77;;
26906;SDS011;14472;56.880;16.658;2024-02-23T12:20:58;8.80;;;3.23;;
26906;SDS011;14472;56.880;16.658;2024-02-23T12:23:25;6.43;;;3.00;;
26906;SDS011;14472;56.880;16.658;2024-02-23T12:25:54;4.73;;;2.73;;
26906;SDS011;14472;56.880;16.658;2024-02-23T12:28:24;6.63;;;3.80;;
26906;SDS011;14472;56.880;16.658;2024-02-23T12:30:59;7.93;;;4.57;;
26906;SDS011;14472;56.880;16.658;2024-02-23T12:33:26;7.30;;;1.67;;
26906;SDS011;14472;56.880;16.658;2024-02-23T12:36:05;4.60;;;1.83;;
26906;SDS011;14472;56.880;16.658;2024-02-23T12:38:32;6.33;;;3.67;;
26906;SDS011;14472;56.880;16.658;2024-02-23T12:41:01;7.90;;;3.00;;
26906;SDS011;14472;56.880;16.658;2024-02-23T12:43:28;5.70;;;1.87;;
26906;SDS011;14472;56.880;16.658;2024-02-23T12:45:54;3.93;;;2.10;;
26906;SDS011;14472;56.880;16.658;2024-02-23T12:48:20;4.87;;;1.83;;
26906;SDS011;14472;56.880;16.658;2024-02-23T12:50:47;4.87;;;1.30;;
26906;SDS011;14472;56.880;16.658;2024-02-23T12:56:02;5.47;;;1.90;;
26906;SDS011;14472;56.880;16.658;2024-02-23T12:58:29;4.17;;;1.30;;
26906;SDS011;14472;56.880;16.658;2024-02-23T13:00:58;2.80;;;1.20;;
26906;SDS011;14472;56.880;16.658;2024-02-23T13:03:24;2.17;;;0.90;;
26906;SDS011;14472;56.880;16.658;2024-02-23T13:05:52;3.23;;;0.80;;
26906;SDS011;14472;56.880;16.658;2024-02-23T13:08:18;4.43;;;0.77;;
26906;SDS011;14472;56.880;16.658;2024-02-23T13:10:44;7.30;;;1.77;;
26906;SDS011;14472;56.880;16.658;2024-02-23T13:13:10;2.87;;;1.23;;
26906;SDS011;14472;56.880;16.658;2024-02-23T13:15:35;2.23;;;1.00;;
26906;SDS011;14472;56.880;16.658;2024-02-23T13:18:04;4.57;;;1.23;;
26906;SDS011;14472;56.880;16.658;2024-02-23T13:20:30;3.33;;;1.10;;
26906;SDS011;14472;56.880;16.658;2024-02-23T13:22:56;4.17;;;1.13;;
26906;SDS011;14472;56.880;16.658;2024-02-23T13:25:22;6.07;;;1.00;;
26906;SDS011;14472;56.880;16.658;2024-02-23T13:27:47;5.70;;;0.90;;
26906;SDS011;14472;56.880;16.658;2024-02-23T13:30:13;1.70;;;0.87;;
26906;SDS011;14472;56.880;16.658;2024-02-23T13:32:39;4.20;;;0.90;;
26906;SDS011;14472;56.880;16.658;2024-02-23T13:35:05;2.20;;;0.80;;
26906;SDS011;14472;56.880;16.658;2024-02-23T13:37:31;3.57;;;1.07;;
26906;SDS011;14472;56.880;16.658;2024-02-23T13:39:58;4.93;;;0.93;;
26906;SDS011;14472;56.880;16.658;2024-02-23T13:42:23;3.03;;;1.10;;
26906;SDS011;14472;56.880;16.658;2024-02-23T13:44:49;6.27;;;1.07;;
26906;SDS011;14472;56.880;16.658;2024-02-23T13:47:15;4.93;;;1.20;;
26906;SDS011;14472;56.880;16.658;2024-02-23T13:49:40;2.13;;;1.07;;
26906;SDS011;14472;56.880;16.658;2024-02-23T13:52:06;3.67;;;0.93;;
26906;SDS011;14472;56.880;16.658;2024-02-23T13:54:32;4.57;;;0.90;;
26906;SDS011;14472;56.880;16.658;2024-02-23T13:56:58;3.77;;;1.10;;
26906;SDS011;14472;56.880;16.658;2024-02-23T13:59:23;6.73;;;1.20;;
26906;SDS011;14472;56.880;16.658;2024-02-23T14:01:49;2.50;;;1.00;;
26906;SDS011;14472;56.880;16.658;2024-02-23T14:04:15;3.03;;;0.77;;
26906;SDS011;14472;56.880;16.658;2024-02-23T14:06:42;0.90;;;0.90;;
26906;SDS011;14472;56.880;16.658;2024-02-23T14:09:08;1.57;;;0.80;;
26906;SDS011;14472;56.880;16.658;2024-02-23T14:11:34;3.57;;;0.97;;
26906;SDS011;14472;56.880;16.658;2024-02-23T14:14:00;2.10;;;1.00;;
26906;SDS011;14472;56.880;16.658;2024-02-23T14:16:27;2.67;;;1.20;;
26906;SDS011;14472;56.880;16.658;2024-02-23T14:18:53;1.43;;;0.83;;
26906;SDS011;14472;56.880;16.658;2024-02-23T14:21:20;0.90;;;0.80;;
26906;SDS011;14472;56.880;16.658;2024-02-23T14:23:47;2.77;;;1.00;;
26906;SDS011;14472;56.880;16.658;2024-02-23T14:26:13;7.00;;;0.90;;
26906;SDS011;14472;56.880;16.658;2024-02-23T14:28:39;3.90;;;1.03;;